sensor_id;sensor_type;location;lat;lon;timestamp;P1;durP1;ratioP1;P2;durP2;ratioP2
47545;SDS011;50104;52.002;4.688;2023-02-28T00:03:35;3.13;;;2.07;;
47545;SDS011;50104;52.002;4.688;2023-02-28T00:08:36;3.93;;;2.40;;
47545;SDS011;50104;52.002;4.688;2023-02-28T00:13:41;6.43;;;2.30;;
47545;SDS011;50104;52.002;4.688;2023-02-28T00:18:46;6.37;;;2.50;;
47545;SDS011;50104;52.002;4.688;2023-02-28T00:23:47;2.10;;;1.70;;
47545;SDS011;50104;52.002;4.688;2023-02-28T00:28:48;3.20;;;1.70;;
47545;SDS011;50104;52.002;4.688;2023-02-28T00:33:52;3.97;;;1.67;;
47545;SDS011;50104;52.002;4.688;2023-02-28T00:38:53;7.83;;;2.30;;
47545;SDS011;50104;52.002;4.688;2023-02-28T00:43:54;3.43;;;1.80;;
47545;SDS011;50104;52.002;4.688;2023-02-28T00:48:55;3.37;;;1.90;;
47545;SDS011;50104;52.002;4.688;2023-02-28T00:53:56;5.57;;;2.07;;
47545;SDS011;50104;52.002;4.688;2023-02-28T00:58:57;4.43;;;2.10;;
47545;SDS011;50104;52.002;4.688;2023-02-28T01:03:58;5.03;;;1.97;;
47545;SDS011;50104;52.002;4.688;2023-02-28T01:09:00;3.70;;;1.77;;
47545;SDS011;50104;52.002;4.688;2023-02-28T01:14:00;4.07;;;1.90;;
47545;SDS011;50104;52.002;4.688;2023-02-28T01:19:02;3.57;;;2.30;;
47545;SDS011;50104;52.002;4.688;2023-02-28T01:24:04;6.27;;;1.80;;
47545;SDS011;50104;52.002;4.688;2023-02-28T01:29:05;3.43;;;1.73;;
47545;SDS011;50104;52.002;4.688;2023-02-28T01:34:06;4.63;;;1.97;;
47545;SDS011;50104;52.002;4.688;2023-02-28T01:39:07;3.27;;;2.17;;
47545;SDS011;50104;52.002;4.688;2023-02-28T01:49:59;6.17;;;2.20;;
47545;SDS011;50104;52.002;4.688;2023-02-28T01:55:04;3.47;;;1.60;;
47545;SDS011;50104;52.002;4.688;2023-02-28T02:00:08;3.43;;;2.00;;
47545;SDS011;50104;52.002;4.688;2023-02-28T02:43:01;2.30;;;2.03;;
47545;SDS011;50104;52.002;4.688;2023-02-28T02:48:29;2.47;;;2.23;;
47545;SDS011;50104;52.002;4.688;2023-02-28T02:53:35;3.43;;;2.30;;
47545;SDS011;50104;52.002;4.688;2023-02-28T02:58:42;3.50;;;2.40;;
47545;SDS011;50104;52.002;4.688;2023-02-28T03:03:44;4.97;;;2.30;;
47545;SDS011;50104;52.002;4.688;2023-02-28T03:08:45;5.23;;;3.10;;
47545;SDS011;50104;52.002;4.688;2023-02-28T03:19:10;4.20;;;2.33;;
47545;SDS011;50104;52.002;4.688;2023-02-28T03:24:31;2.43;;;2.23;;
47545;SDS011;50104;52.002;4.688;2023-02-28T03:29:46;3.17;;;2.27;;
47545;SDS011;50104;52.002;4.688;2023-02-28T03:35:30;3.27;;;2.30;;
47545;SDS011;50104;52.002;4.688;2023-02-28T03:40:27;4.00;;;2.53;;
47545;SDS011;50104;52.002;4.688;2023-02-28T03:45:33;3.20;;;2.70;;
47545;SDS011;50104;52.002;4.688;2023-02-28T03:50:39;4.80;;;2.70;;
47545;SDS011;50104;52.002;4.688;2023-02-28T03:55:44;3.97;;;2.90;;
47545;SDS011;50104;52.002;4.688;2023-02-28T04:00:52;4.53;;;3.35;;
47545;SDS011;50104;52.002;4.688;2023-02-28T04:06:13;4.33;;;2.77;;
47545;SDS011;50104;52.002;4.688;2023-02-28T04:11:30;4.47;;;3.37;;
47545;SDS011;50104;52.002;4.688;2023-02-28T04:16:38;4.50;;;3.13;;
47545;SDS011;50104;52.002;4.688;2023-02-28T04:21:42;7.00;;;3.30;;
47545;SDS011;50104;52.002;4.688;2023-02-28T04:26:46;4.10;;;3.60;;
47545;SDS011;50104;52.002;4.688;2023-02-28T04:31:54;5.20;;;3.20;;
47545;SDS011;50104;52.002;4.688;2023-02-28T04:36:59;8.93;;;3.10;;
47545;SDS011;50104;52.002;4.688;2023-02-28T04:42:00;4.40;;;3.60;;
47545;SDS011;50104;52.002;4.688;2023-02-28T04:47:01;5.27;;;4.07;;
47545;SDS011;50104;52.002;4.688;2023-02-28T04:52:02;6.27;;;4.07;;
47545;SDS011;50104;52.002;4.688;2023-02-28T04:57:04;7.27;;;3.73;;
47545;SDS011;50104;52.002;4.688;2023-02-28T05:02:06;7.83;;;3.40;;
47545;SDS011;50104;52.002;4.688;2023-02-28T05:07:07;4.10;;;3.40;;
47545;SDS011;50104;52.002;4.688;2023-02-28T05:12:09;5.80;;;3.43;;
47545;SDS011;50104;52.002;4.688;2023-02-28T05:17:09;5.60;;;4.13;;
47545;SDS011;50104;52.002;4.688;2023-02-28T05:22:14;6.77;;;4.20;;
47545;SDS011;50104;52.002;4.688;2023-02-28T05:27:16;7.47;;;4.17;;
47545;SDS011;50104;52.002;4.688;2023-02-28T05:32:17;9.77;;;4.80;;
47545;SDS011;50104;52.002;4.688;2023-02-28T05:37:18;8.93;;;4.60;;
47545;SDS011;50104;52.002;4.688;2023-02-28T05:42:19;6.20;;;4.33;;
47545;SDS011;50104;52.002;4.688;2023-02-28T05:47:20;7.27;;;4.13;;
47545;SDS011;50104;52.002;4.688;2023-02-28T05:52:21;5.00;;;3.90;;
47545;SDS011;50104;52.002;4.688;2023-02-28T05:57:22;7.47;;;4.70;;
47545;SDS011;50104;52.002;4.688;2023-02-28T06:02:26;6.40;;;4.10;;
47545;SDS011;50104;52.002;4.688;2023-02-28T06:07:28;5.43;;;4.60;;
47545;SDS011;50104;52.002;4.688;2023-02-28T06:12:29;4.60;;;4.07;;
47545;SDS011;50104;52.002;4.688;2023-02-28T06:17:30;5.70;;;3.97;;
47545;SDS011;50104;52.002;4.688;2023-02-28T06:22:31;4.50;;;3.50;;
47545;SDS011;50104;52.002;4.688;2023-02-28T06:27:32;4.07;;;2.80;;
47545;SDS011;50104;52.002;4.688;2023-02-28T06:32:33;6.03;;;3.23;;
47545;SDS011;50104;52.002;4.688;2023-02-28T06:37:36;8.23;;;3.37;;
47545;SDS011;50104;52.002;4.688;2023-02-28T06:42:37;4.23;;;2.90;;
47545;SDS011;50104;52.002;4.688;2023-02-28T06:47:38;7.17;;;2.80;;
47545;SDS011;50104;52.002;4.688;2023-02-28T06:52:41;3.77;;;2.53;;
47545;SDS011;50104;52.002;4.688;2023-02-28T06:57:42;4.47;;;2.73;;
47545;SDS011;50104;52.002;4.688;2023-02-28T07:02:43;4.03;;;2.70;;
47545;SDS011;50104;52.002;4.688;2023-02-28T07:07:43;6.63;;;2.63;;
47545;SDS011;50104;52.002;4.688;2023-02-28T07:12:47;3.10;;;2.73;;
47545;SDS011;50104;52.002;4.688;2023-02-28T07:17:48;2.90;;;2.60;;
47545;SDS011;50104;52.002;4.688;2023-02-28T07:22:49;7.23;;;3.10;;
47545;SDS011;50104;52.002;4.688;2023-02-28T07:27:56;3.95;;;3.42;;
47545;SDS011;50104;52.002;4.688;2023-02-28T07:32:59;4.50;;;3.93;;
47545;SDS011;50104;52.002;4.688;2023-02-28T07:38:00;8.17;;;3.07;;
47545;SDS011;50104;52.002;4.688;2023-02-28T07:43:02;4.50;;;2.70;;
47545;SDS011;50104;52.002;4.688;2023-02-28T07:48:05;4.17;;;2.40;;
47545;SDS011;50104;52.002;4.688;2023-02-28T07:53:06;3.20;;;2.67;;
47545;SDS011;50104;52.002;4.688;2023-02-28T07:58:07;3.37;;;2.80;;
47545;SDS011;50104;52.002;4.688;2023-02-28T08:03:11;3.87;;;2.90;;
47545;SDS011;50104;52.002;4.688;2023-02-28T08:08:13;8.60;;;4.00;;
47545;SDS011;50104;52.002;4.688;2023-02-28T08:13:15;3.63;;;3.33;;
47545;SDS011;50104;52.002;4.688;2023-02-28T08:18:16;5.57;;;3.57;;
47545;SDS011;50104;52.002;4.688;2023-02-28T08:23:17;4.17;;;2.93;;
47545;SDS011;50104;52.002;4.688;2023-02-28T08:28:18;4.70;;;3.77;;
47545;SDS011;50104;52.002;4.688;2023-02-28T08:33:18;5.53;;;3.33;;
47545;SDS011;50104;52.002;4.688;2023-02-28T08:38:19;4.83;;;3.17;;
47545;SDS011;50104;52.002;4.688;2023-02-28T08:43:20;4.50;;;3.57;;
47545;SDS011;50104;52.002;4.688;2023-02-28T08:48:21;4.67;;;3.43;;
47545;SDS011;50104;52.002;4.688;2023-02-28T08:53:26;5.30;;;3.80;;
47545;SDS011;50104;52.002;4.688;2023-02-28T08:58:27;8.10;;;4.30;;
47545;SDS011;50104;52.002;4.688;2023-02-28T09:03:28;7.30;;;3.90;;
47545;SDS011;50104;52.002;4.688;2023-02-28T09:08:30;5.23;;;3.80;;
47545;SDS011;50104;52.002;4.688;2023-02-28T09:13:34;6.30;;;4.63;;
47545;SDS011;50104;52.002;4.688;2023-02-28T09:18:36;5.67;;;3.60;;
47545;SDS011;50104;52.002;4.688;2023-02-28T09:23:38;5.03;;;3.87;;
47545;SDS011;50104;52.002;4.688;2023-02-28T09:28:41;4.53;;;3.33;;
47545;SDS011;50104;52.002;4.688;2023-02-28T09:33:42;5.80;;;3.50;;
47545;SDS011;50104;52.002;4.688;2023-02-28T09:38:43;6.77;;;3.17;;
47545;SDS011;50104;52.002;4.688;2023-02-28T09:43:47;5.67;;;3.03;;
47545;SDS011;50104;52.002;4.688;2023-02-28T09:48:55;3.87;;;3.13;;
47545;SDS011;50104;52.002;4.688;2023-02-28T09:53:57;4.67;;;4.17;;
47545;SDS011;50104;52.002;4.688;2023-02-28T09:59:02;4.97;;;4.13;;
47545;SDS011;50104;52.002;4.688;2023-02-28T10:13:54;5.05;;;3.58;;
47545;SDS011;50104;52.002;4.688;2023-02-28T10:19:06;4.43;;;3.60;;
47545;SDS011;50104;52.002;4.688;2023-02-28T10:29:45;6.23;;;4.43;;
47545;SDS011;50104;52.002;4.688;2023-02-28T10:34:59;5.87;;;4.10;;
47545;SDS011;50104;52.002;4.688;2023-02-28T10:45:23;6.83;;;4.10;;
47545;SDS011;50104;52.002;4.688;2023-02-28T11:01:14;3.47;;;2.90;;
47545;SDS011;50104;52.002;4.688;2023-02-28T11:06:22;3.23;;;2.37;;
47545;SDS011;50104;52.002;4.688;2023-02-28T11:11:30;2.45;;;2.25;;
47545;SDS011;50104;52.002;4.688;2023-02-28T11:16:43;2.70;;;2.50;;
47545;SDS011;50104;52.002;4.688;2023-02-28T11:21:48;2.60;;;2.40;;
47545;SDS011;50104;52.002;4.688;2023-02-28T11:26:57;3.30;;;3.00;;
47545;SDS011;50104;52.002;4.688;2023-02-28T11:37:20;3.92;;;3.50;;
47545;SDS011;50104;52.002;4.688;2023-02-28T11:48:17;4.32;;;3.92;;
47545;SDS011;50104;52.002;4.688;2023-02-28T12:15:13;2.88;;;2.60;;
47545;SDS011;50104;52.002;4.688;2023-02-28T12:20:30;3.03;;;2.72;;
47545;SDS011;50104;52.002;4.688;2023-02-28T12:31:23;2.70;;;2.50;;
47545;SDS011;50104;52.002;4.688;2023-02-28T12:36:29;6.55;;;4.82;;
47545;SDS011;50104;52.002;4.688;2023-02-28T12:46:45;2.72;;;2.42;;
47545;SDS011;50104;52.002;4.688;2023-02-28T12:51:51;2.42;;;2.22;;
47545;SDS011;50104;52.002;4.688;2023-02-28T12:57:09;2.00;;;1.85;;
47545;SDS011;50104;52.002;4.688;2023-02-28T13:13:59;2.45;;;1.95;;
47545;SDS011;50104;52.002;4.688;2023-02-28T13:19:09;2.70;;;2.00;;
47545;SDS011;50104;52.002;4.688;2023-02-28T13:24:12;2.53;;;2.33;;
47545;SDS011;50104;52.002;4.688;2023-02-28T13:29:44;2.45;;;2.25;;
47545;SDS011;50104;52.002;4.688;2023-02-28T13:39:53;2.70;;;1.97;;
47545;SDS011;50104;52.002;4.688;2023-02-28T14:06:28;3.63;;;2.05;;
47545;SDS011;50104;52.002;4.688;2023-02-28T14:16:39;2.33;;;2.13;;
47545;SDS011;50104;52.002;4.688;2023-02-28T14:21:49;2.55;;;1.92;;
47545;SDS011;50104;52.002;4.688;2023-02-28T14:32:27;2.50;;;1.90;;
47545;SDS011;50104;52.002;4.688;2023-02-28T14:38:01;1.95;;;1.77;;
47545;SDS011;50104;52.002;4.688;2023-02-28T14:43:20;3.08;;;1.85;;
47545;SDS011;50104;52.002;4.688;2023-02-28T14:48:26;2.47;;;2.28;;
47545;SDS011;50104;52.002;4.688;2023-02-28T14:53:29;2.22;;;2.00;;
47545;SDS011;50104;52.002;4.688;2023-02-28T14:58:54;3.65;;;2.28;;
47545;SDS011;50104;52.002;4.688;2023-02-28T15:03:57;2.70;;;1.90;;
47545;SDS011;50104;52.002;4.688;2023-02-28T15:09:24;2.58;;;1.83;;
47545;SDS011;50104;52.002;4.688;2023-02-28T15:14:25;2.97;;;1.65;;
47545;SDS011;50104;52.002;4.688;2023-02-28T15:19:34;2.55;;;1.85;;
47545;SDS011;50104;52.002;4.688;2023-02-28T15:24:47;4.25;;;2.33;;
47545;SDS011;50104;52.002;4.688;2023-02-28T15:29:54;2.45;;;2.25;;
47545;SDS011;50104;52.002;4.688;2023-02-28T15:35:17;2.35;;;2.13;;
47545;SDS011;50104;52.002;4.688;2023-02-28T15:40:31;2.95;;;1.90;;
47545;SDS011;50104;52.002;4.688;2023-02-28T15:50:42;2.47;;;2.28;;
47545;SDS011;50104;52.002;4.688;2023-02-28T15:55:43;2.92;;;2.60;;
47545;SDS011;50104;52.002;4.688;2023-02-28T16:00:45;5.03;;;2.88;;
47545;SDS011;50104;52.002;4.688;2023-02-28T16:06:21;2.50;;;2.30;;
47545;SDS011;50104;52.002;4.688;2023-02-28T16:11:39;2.78;;;2.40;;
47545;SDS011;50104;52.002;4.688;2023-02-28T16:16:46;2.40;;;2.20;;
47545;SDS011;50104;52.002;4.688;2023-02-28T16:21:51;3.33;;;2.70;;
47545;SDS011;50104;52.002;4.688;2023-02-28T16:26:53;4.07;;;2.80;;
47545;SDS011;50104;52.002;4.688;2023-02-28T16:31:56;3.85;;;2.70;;
47545;SDS011;50104;52.002;4.688;2023-02-28T16:36:57;4.85;;;3.05;;
47545;SDS011;50104;52.002;4.688;2023-02-28T16:41:58;4.03;;;2.95;;
47545;SDS011;50104;52.002;4.688;2023-02-28T16:46:59;2.78;;;2.50;;
47545;SDS011;50104;52.002;4.688;2023-02-28T16:52:01;2.92;;;2.63;;
47545;SDS011;50104;52.002;4.688;2023-02-28T16:57:02;4.15;;;3.00;;
47545;SDS011;50104;52.002;4.688;2023-02-28T17:02:09;4.57;;;2.90;;
47545;SDS011;50104;52.002;4.688;2023-02-28T17:07:15;3.20;;;2.90;;
47545;SDS011;50104;52.002;4.688;2023-02-28T17:12:16;4.03;;;3.00;;
47545;SDS011;50104;52.002;4.688;2023-02-28T17:17:18;5.13;;;2.88;;
47545;SDS011;50104;52.002;4.688;2023-02-28T17:22:21;4.78;;;2.95;;
47545;SDS011;50104;52.002;4.688;2023-02-28T17:27:22;3.10;;;2.80;;
47545;SDS011;50104;52.002;4.688;2023-02-28T17:32:23;3.72;;;3.33;;
47545;SDS011;50104;52.002;4.688;2023-02-28T17:37:23;3.28;;;3.08;;
47545;SDS011;50104;52.002;4.688;2023-02-28T17:42:24;4.47;;;3.53;;
47545;SDS011;50104;52.002;4.688;2023-02-28T17:47:25;4.00;;;3.40;;
47545;SDS011;50104;52.002;4.688;2023-02-28T17:52:26;3.33;;;2.72;;
47545;SDS011;50104;52.002;4.688;2023-02-28T17:57:29;4.07;;;3.10;;
47545;SDS011;50104;52.002;4.688;2023-02-28T18:02:30;4.20;;;3.45;;
47545;SDS011;50104;52.002;4.688;2023-02-28T18:07:32;3.78;;;3.00;;
47545;SDS011;50104;52.002;4.688;2023-02-28T18:12:33;4.13;;;3.72;;
47545;SDS011;50104;52.002;4.688;2023-02-28T18:17:33;4.27;;;3.53;;
47545;SDS011;50104;52.002;4.688;2023-02-28T18:22:35;4.17;;;3.70;;
47545;SDS011;50104;52.002;4.688;2023-02-28T18:27:37;4.17;;;3.17;;
47545;SDS011;50104;52.002;4.688;2023-02-28T18:32:38;4.67;;;4.13;;
47545;SDS011;50104;52.002;4.688;2023-02-28T18:37:39;5.03;;;3.90;;
47545;SDS011;50104;52.002;4.688;2023-02-28T18:42:39;4.53;;;3.73;;
47545;SDS011;50104;52.002;4.688;2023-02-28T18:47:40;4.50;;;3.80;;
47545;SDS011;50104;52.002;4.688;2023-02-28T18:52:43;5.40;;;4.87;;
47545;SDS011;50104;52.002;4.688;2023-02-28T18:57:46;4.63;;;4.10;;
47545;SDS011;50104;52.002;4.688;2023-02-28T19:02:48;7.10;;;4.70;;
47545;SDS011;50104;52.002;4.688;2023-02-28T19:07:49;6.80;;;4.63;;
47545;SDS011;50104;52.002;4.688;2023-02-28T19:12:50;7.33;;;4.40;;
47545;SDS011;50104;52.002;4.688;2023-02-28T19:17:51;4.30;;;3.90;;
47545;SDS011;50104;52.002;4.688;2023-02-28T19:22:52;6.93;;;4.57;;
47545;SDS011;50104;52.002;4.688;2023-02-28T19:27:53;5.73;;;4.60;;
47545;SDS011;50104;52.002;4.688;2023-02-28T19:32:55;7.03;;;4.97;;
47545;SDS011;50104;52.002;4.688;2023-02-28T19:37:56;8.30;;;5.07;;
47545;SDS011;50104;52.002;4.688;2023-02-28T19:42:58;6.57;;;5.73;;
47545;SDS011;50104;52.002;4.688;2023-02-28T19:47:59;6.53;;;5.23;;
47545;SDS011;50104;52.002;4.688;2023-02-28T19:53:00;6.30;;;4.73;;
47545;SDS011;50104;52.002;4.688;2023-02-28T19:58:02;6.77;;;5.13;;
47545;SDS011;50104;52.002;4.688;2023-02-28T20:03:03;7.37;;;5.57;;
47545;SDS011;50104;52.002;4.688;2023-02-28T20:08:04;6.20;;;5.43;;
47545;SDS011;50104;52.002;4.688;2023-02-28T20:13:05;6.60;;;5.90;;
47545;SDS011;50104;52.002;4.688;2023-02-28T20:18:06;10.70;;;6.73;;
47545;SDS011;50104;52.002;4.688;2023-02-28T20:23:07;8.13;;;6.20;;
47545;SDS011;50104;52.002;4.688;2023-02-28T20:28:10;10.47;;;7.00;;
47545;SDS011;50104;52.002;4.688;2023-02-28T20:33:11;9.70;;;7.63;;
47545;SDS011;50104;52.002;4.688;2023-02-28T20:38:11;8.77;;;6.50;;
47545;SDS011;50104;52.002;4.688;2023-02-28T20:43:12;8.77;;;7.03;;
47545;SDS011;50104;52.002;4.688;2023-02-28T20:48:14;9.13;;;6.87;;
47545;SDS011;50104;52.002;4.688;2023-02-28T20:53:15;9.20;;;7.00;;
47545;SDS011;50104;52.002;4.688;2023-02-28T20:58:17;10.57;;;6.73;;
47545;SDS011;50104;52.002;4.688;2023-02-28T21:03:18;10.27;;;7.47;;
47545;SDS011;50104;52.002;4.688;2023-02-28T21:08:18;9.80;;;7.70;;
47545;SDS011;50104;52.002;4.688;2023-02-28T21:13:19;9.43;;;8.10;;
47545;SDS011;50104;52.002;4.688;2023-02-28T21:18:20;8.67;;;6.87;;
47545;SDS011;50104;52.002;4.688;2023-02-28T21:23:21;9.00;;;6.77;;
47545;SDS011;50104;52.002;4.688;2023-02-28T21:28:22;12.60;;;7.53;;
47545;SDS011;50104;52.002;4.688;2023-02-28T21:33:23;10.53;;;7.23;;
47545;SDS011;50104;52.002;4.688;2023-02-28T21:38:24;12.20;;;7.47;;
47545;SDS011;50104;52.002;4.688;2023-02-28T21:43:25;12.53;;;7.70;;
47545;SDS011;50104;52.002;4.688;2023-02-28T21:48:26;7.90;;;7.00;;
47545;SDS011;50104;52.002;4.688;2023-02-28T21:53:27;11.77;;;7.33;;
47545;SDS011;50104;52.002;4.688;2023-02-28T21:58:30;10.60;;;7.77;;
47545;SDS011;50104;52.002;4.688;2023-02-28T22:03:31;11.13;;;7.03;;
47545;SDS011;50104;52.002;4.688;2023-02-28T22:08:33;8.23;;;5.67;;
47545;SDS011;50104;52.002;4.688;2023-02-28T22:13:35;9.13;;;7.13;;
47545;SDS011;50104;52.002;4.688;2023-02-28T22:18:37;11.13;;;7.40;;
47545;SDS011;50104;52.002;4.688;2023-02-28T22:23:40;13.87;;;8.03;;
47545;SDS011;50104;52.002;4.688;2023-02-28T22:28:44;11.27;;;8.77;;
47545;SDS011;50104;52.002;4.688;2023-02-28T22:33:46;12.17;;;7.30;;
47545;SDS011;50104;52.002;4.688;2023-02-28T22:38:49;9.67;;;7.60;;
47545;SDS011;50104;52.002;4.688;2023-02-28T22:43:51;10.43;;;7.43;;
47545;SDS011;50104;52.002;4.688;2023-02-28T22:48:59;12.13;;;7.70;;
47545;SDS011;50104;52.002;4.688;2023-02-28T22:54:02;12.63;;;8.33;;
47545;SDS011;50104;52.002;4.688;2023-02-28T22:59:03;11.13;;;7.40;;
47545;SDS011;50104;52.002;4.688;2023-02-28T23:04:04;15.07;;;7.50;;
47545;SDS011;50104;52.002;4.688;2023-02-28T23:09:06;12.63;;;7.93;;
47545;SDS011;50104;52.002;4.688;2023-02-28T23:14:11;13.30;;;8.07;;
47545;SDS011;50104;52.002;4.688;2023-02-28T23:19:24;14.10;;;8.07;;
47545;SDS011;50104;52.002;4.688;2023-02-28T23:24:29;15.27;;;8.40;;
47545;SDS011;50104;52.002;4.688;2023-02-28T23:29:33;11.47;;;7.80;;
47545;SDS011;50104;52.002;4.688;2023-02-28T23:34:34;12.23;;;8.23;;
47545;SDS011;50104;52.002;4.688;2023-02-28T23:39:35;9.77;;;6.93;;
47545;SDS011;50104;52.002;4.688;2023-02-28T23:44:36;12.07;;;8.80;;
47545;SDS011;50104;52.002;4.688;2023-02-28T23:49:37;14.40;;;8.90;;
47545;SDS011;50104;52.002;4.688;2023-02-28T23:54:38;11.90;;;8.60;;
47545;SDS011;50104;52.002;4.688;2023-02-28T23:59:39;13.77;;;8.43;;
